Canaan, Connecticut
Current Conditions -  °F | °C
As of 7:54 PM on Sunday 23 Nov 2014 (Local Time) from KPSF Reporting Station
Scattered Clouds Scattered Clouds  
Wind Chill: 36°   Ceiling: Unl
Heat Index: 39°   Visibility: 10mi
Dew Point: 35°   Wind: 5mph
Humidity: 86%   Direction: 330°NNW
Pressure: 30.07"   Gusts: NA
Location:  42.03°N, 73.33°W
Report Text: KPSF 240054Z AUTO 33004KT 10SM SCT085 04/02 A3007 RMK AO2 SLP186 T00390017
Loading
Personal Weather Stations






























Interactive Weather Map New forecast layout! Learn more

10-Day Weather Forecast

Advertisements
Track Severe Weather on mobile